Time;durP1;ratioP1;P1;durP2;ratioP2;P2;SDS_P1;SDS_P2;PMS_P1;PMS_P2;Temp;Humidity;BMP_temperature;BMP_pressure;BME280_temperature;BME280_humidity;BME280_pressure;Samples;Min_cycle;Max_cycle;Signal;HPM_P1;HPM_P2
2023/07/18 00:01:13;;;;;;;8.15;4.20;;;;;;;21.15;57.26;96840.75;5114677;28;20059;-73
2023/07/18 00:03:40;;;;;;;8.35;3.97;;;;;;;21.23;57.55;96831.34;5113788;28;20043;-74
2023/07/18 00:06:06;;;;;;;6.45;3.80;;;;;;;21.29;58.06;96836.16;5114432;28;20122;-74
2023/07/18 00:08:33;;;;;;;5.55;4.10;;;;;;;21.33;59.97;96834.28;5114070;28;20051;-74
2023/07/18 00:11:01;;;;;;;5.45;3.65;;;;;;;21.35;58.97;96839.44;5113937;28;20411;-74
2023/07/18 00:13:27;;;;;;;5.63;3.58;;;;;;;21.23;57.69;96834.91;5113098;28;20046;-74
2023/07/18 00:15:54;;;;;;;6.15;3.95;;;;;;;21.30;58.55;96845.31;5113040;28;20051;-74
2023/07/18 00:18:21;;;;;;;7.50;3.88;;;;;;;21.29;58.44;96855.56;5113211;28;20055;-74
2023/07/18 00:20:47;;;;;;;6.82;4.28;;;;;;;21.18;56.84;96859.34;5113230;28;20440;-74
2023/07/18 00:23:14;;;;;;;7.90;4.25;;;;;;;21.19;56.33;96844.34;5112760;28;20048;-73
2023/07/18 00:25:41;;;;;;;5.65;3.88;;;;;;;21.21;56.48;96837.25;5112528;28;20403;-74
2023/07/18 00:28:09;;;;;;;7.60;3.90;;;;;;;21.22;58.07;96836.06;5112517;28;20514;-73
2023/07/18 00:30:35;;;;;;;7.00;4.38;;;;;;;21.24;60.74;96841.22;5111729;28;20043;-74
2023/07/18 00:33:02;;;;;;;8.52;4.00;;;;;;;21.20;60.53;96852.28;5111457;28;20044;-74
2023/07/18 00:35:28;;;;;;;7.43;4.47;;;;;;;21.20;60.29;96863.38;5112725;28;20055;-74
2023/07/18 00:37:55;;;;;;;7.40;3.80;;;;;;;21.20;59.25;96857.03;5112713;28;20047;-73
2023/07/18 00:40:21;;;;;;;7.10;4.32;;;;;;;21.13;59.20;96859.69;5112725;28;20043;-74
2023/07/18 00:42:48;;;;;;;11.63;4.47;;;;;;;21.09;60.40;96852.13;5112118;28;20690;-74
2023/07/18 00:45:17;;;;;;;7.07;4.47;;;;;;;21.10;60.22;96853.72;5112219;28;20585;-74
2023/07/18 00:47:46;;;;;;;8.38;4.57;;;;;;;21.13;60.40;96852.16;5112293;27;20506;-73
2023/07/18 00:50:15;;;;;;;9.52;4.53;;;;;;;20.84;58.92;96842.69;5112661;28;20040;-74
2023/07/18 00:52:46;;;;;;;12.40;5.07;;;;;;;20.44;60.39;96838.47;5112221;28;20063;-73
2023/07/18 00:55:13;;;;;;;8.70;4.82;;;;;;;20.51;60.67;96844.13;5112467;28;20726;-73
2023/07/18 00:57:42;;;;;;;5.88;4.18;;;;;;;20.62;61.44;96846.25;5112188;28;20043;-74
2023/07/18 01:00:11;;;;;;;8.13;4.50;;;;;;;20.69;62.22;96843.63;5111941;28;20506;-73
2023/07/18 01:02:40;;;;;;;7.22;4.35;;;;;;;20.67;61.63;96845.94;5111550;28;20134;-73
2023/07/18 01:05:07;;;;;;;6.72;4.63;;;;;;;20.63;60.82;96847.88;5112148;28;20046;-73
2023/07/18 01:07:34;;;;;;;6.10;4.57;;;;;;;20.66;60.47;96844.34;5111442;28;20571;-74
2023/07/18 01:10:17;;;;;;;7.97;4.32;;;;;;;20.64;60.73;96841.19;5111110;28;20056;-73
2023/07/18 01:12:44;;;;;;;10.07;4.82;;;;;;;20.60;61.67;96838.34;5111331;28;20039;-74
2023/07/18 01:15:12;;;;;;;7.85;4.28;;;;;;;20.57;61.80;96837.13;5110974;28;20047;-74
2023/07/18 01:17:43;;;;;;;8.23;4.68;;;;;;;20.56;62.13;96841.03;5111861;28;20142;-73
2023/07/18 01:20:15;;;;;;;9.05;4.55;;;;;;;20.56;62.30;96835.50;5111992;28;20039;-73
2023/07/18 01:22:44;;;;;;;8.30;4.80;;;;;;;20.57;62.08;96837.13;5111206;28;20042;-74
2023/07/18 01:25:11;;;;;;;7.50;4.53;;;;;;;20.54;62.40;96829.56;5111121;28;20036;-74
2023/07/18 01:27:38;;;;;;;8.70;5.13;;;;;;;20.53;63.54;96829.94;5111629;28;20047;-73
2023/07/18 01:30:06;;;;;;;11.20;4.93;;;;;;;20.38;61.58;96820.59;5111244;28;20406;-73
2023/07/18 01:32:33;;;;;;;9.65;5.35;;;;;;;20.18;62.47;96821.81;5111034;28;20047;-73
2023/07/18 01:35:03;;;;;;;8.73;5.13;;;;;;;20.27;63.36;96827.91;5111605;28;20123;-73
2023/07/18 01:37:29;;;;;;;10.90;5.10;;;;;;;20.37;64.61;96816.22;5111311;28;20051;-73
2023/07/18 01:39:57;;;;;;;7.68;4.97;;;;;;;20.38;63.80;96820.59;5111321;28;20040;-73
2023/07/18 01:42:24;;;;;;;8.60;4.50;;;;;;;20.37;63.40;96810.69;5111259;28;20066;-74
2023/07/18 01:44:50;;;;;;;8.77;4.78;;;;;;;20.36;63.38;96803.56;5110793;28;20487;-74
2023/07/18 01:47:17;;;;;;;8.27;4.65;;;;;;;20.33;64.42;96796.81;5111374;28;20036;-73
2023/07/18 01:49:43;;;;;;;6.43;4.47;;;;;;;20.30;64.17;96807.78;5111354;28;20050;-74
2023/07/18 01:52:10;;;;;;;7.30;4.90;;;;;;;20.25;64.56;96797.03;5111121;28;20160;-74
2023/07/18 01:54:37;;;;;;;10.18;5.03;;;;;;;20.21;65.94;96807.28;5111214;28;20046;-74
2023/07/18 01:57:05;;;;;;;7.15;4.78;;;;;;;20.17;65.16;96801.66;5111781;28;20456;-73
2023/07/18 01:59:32;;;;;;;9.25;5.07;;;;;;;20.16;66.92;96804.81;5110924;28;20042;-74
2023/07/18 02:01:59;;;;;;;8.73;5.20;;;;;;;20.13;67.47;96805.53;5110858;28;20044;-74
2023/07/18 02:04:25;;;;;;;8.50;4.45;;;;;;;20.05;68.04;96799.91;5111198;28;20044;-74
2023/07/18 02:06:52;;;;;;;7.03;4.22;;;;;;;20.00;67.43;96797.44;5110555;28;20043;-74
2023/07/18 02:09:18;;;;;;;6.78;4.88;;;;;;;19.99;67.90;96808.84;5110995;28;20070;-74
2023/07/18 02:11:45;;;;;;;7.30;5.03;;;;;;;19.99;68.84;96806.91;5111103;28;20047;-73
2023/07/18 02:14:13;;;;;;;7.88;5.18;;;;;;;19.99;68.98;96806.91;5110684;28;20471;-73
2023/07/18 02:16:39;;;;;;;9.23;4.88;;;;;;;19.96;68.06;96810.41;5111124;28;20043;-73
2023/07/18 02:19:06;;;;;;;10.02;4.68;;;;;;;19.92;68.01;96806.75;5110649;28;20534;-73
2023/07/18 02:21:32;;;;;;;7.75;4.65;;;;;;;19.90;69.12;96809.09;5111017;28;20040;-73
2023/07/18 02:23:59;;;;;;;8.55;4.70;;;;;;;19.87;68.93;96804.31;5111225;28;20402;-74
2023/07/18 02:26:25;;;;;;;9.00;5.35;;;;;;;19.84;69.07;96802.28;5111472;28;20488;-74
2023/07/18 02:28:54;;;;;;;6.78;4.63;;;;;;;19.81;69.35;96805.78;5111768;28;20051;-74
2023/07/18 02:31:21;;;;;;;7.35;4.82;;;;;;;19.77;70.66;96804.91;5112163;28;20040;-74
2023/07/18 02:33:48;;;;;;;10.80;5.65;;;;;;;19.71;70.29;96806.38;5112112;28;20126;-73
2023/07/18 02:36:14;;;;;;;7.70;5.00;;;;;;;19.72;70.40;96805.22;5112483;28;20054;-73
2023/07/18 02:38:41;;;;;;;7.85;4.90;;;;;;;19.74;70.11;96800.13;5112023;28;20047;-73
2023/07/18 02:41:07;;;;;;;9.55;5.13;;;;;;;19.72;69.66;96805.22;5116352;28;20402;-73
2023/07/18 02:43:34;;;;;;;11.30;5.50;;;;;;;19.69;70.36;96806.75;5114804;28;20048;-74
2023/07/18 02:46:00;;;;;;;8.43;4.95;;;;;;;19.62;71.19;96808.56;5116015;28;20063;-74
2023/07/18 02:48:28;;;;;;;9.00;4.80;;;;;;;19.59;71.21;96801.00;5116251;28;20084;-74
2023/07/18 02:50:54;;;;;;;8.38;5.07;;;;;;;19.61;72.40;96795.91;5114480;28;20043;-74
2023/07/18 02:53:21;;;;;;;13.07;5.72;;;;;;;19.50;71.64;96799.25;5110741;28;20040;-73
2023/07/18 02:55:49;;;;;;;7.90;5.03;;;;;;;19.54;72.70;96804.84;5111390;28;20051;-74
2023/07/18 02:58:15;;;;;;;7.47;5.25;;;;;;;19.56;72.26;96797.78;5114368;28;20134;-74
2023/07/18 03:00:42;;;;;;;10.25;5.25;;;;;;;19.60;72.00;96806.19;5114435;28;20066;-74
2023/07/18 03:03:08;;;;;;;11.75;5.50;;;;;;;19.56;72.35;96803.31;5114274;28;20039;-74
2023/07/18 03:05:37;;;;;;;10.13;5.43;;;;;;;19.62;72.46;96797.50;5114219;28;20040;-73
2023/07/18 03:08:04;;;;;;;9.45;5.32;;;;;;;19.61;73.03;96799.47;5114047;28;20131;-74
2023/07/18 03:10:31;;;;;;;8.35;5.47;;;;;;;19.69;73.37;96804.00;5114212;28;20083;-73
2023/07/18 03:12:57;;;;;;;7.88;5.25;;;;;;;19.75;73.72;96801.72;5113755;28;20036;-74
2023/07/18 03:15:24;;;;;;;7.47;4.80;;;;;;;19.78;74.11;96809.25;5114874;28;20036;-74
2023/07/18 03:17:51;;;;;;;7.72;4.85;;;;;;;19.80;74.39;96801.41;5115430;28;20054;-73
2023/07/18 03:20:19;;;;;;;9.18;5.68;;;;;;;19.78;73.71;96801.78;5117454;28;20044;-74
2023/07/18 03:22:48;;;;;;;8.52;5.18;;;;;;;19.80;73.17;96793.13;5118584;28;20042;-74
2023/07/18 03:25:14;;;;;;;9.23;5.47;;;;;;;19.71;72.64;96801.66;5119485;28;20048;-73
2023/07/18 03:27:41;;;;;;;7.90;5.15;;;;;;;19.73;72.28;96806.81;5120270;28;20040;-73
2023/07/18 03:30:10;;;;;;;10.35;5.07;;;;;;;19.74;71.86;96809.22;5119932;28;20040;-74
2023/07/18 03:32:37;;;;;;;7.82;5.20;;;;;;;19.75;71.75;96807.25;5120407;28;20051;-74
2023/07/18 03:35:04;;;;;;;8.05;4.88;;;;;;;19.76;71.76;96808.84;5119234;28;20044;-74
2023/07/18 03:37:31;;;;;;;8.82;4.80;;;;;;;19.76;71.79;96808.84;5118940;28;20086;-74
2023/07/18 03:39:59;;;;;;;9.52;5.03;;;;;;;19.77;73.13;96804.91;5119709;28;20043;-74
2023/07/18 03:42:25;;;;;;;11.48;5.30;;;;;;;19.79;73.77;96803.38;5118789;27;20044;-74
2023/07/18 03:44:52;;;;;;;7.90;4.95;;;;;;;19.80;74.17;96804.19;5118151;28;20392;-74
2023/07/18 03:47:18;;;;;;;10.82;5.45;;;;;;;19.64;73.14;96811.78;5108355;28;20051;-74
2023/07/18 03:49:45;;;;;;;8.30;5.63;;;;;;;19.50;73.14;96803.97;5113628;27;20047;-73
2023/07/18 03:52:11;;;;;;;9.02;5.50;;;;;;;19.56;73.39;96803.31;5113685;28;20048;-73
2023/07/18 03:54:38;;;;;;;9.35;5.90;;;;;;;19.53;73.70;96806.81;5113009;28;20040;-73
2023/07/18 03:57:06;;;;;;;9.73;5.68;;;;;;;19.37;73.85;96808.88;5113385;28;20051;-74
2023/07/18 03:59:33;;;;;;;11.18;5.82;;;;;;;19.27;73.95;96803.94;5117636;27;20036;-74
2023/07/18 04:01:59;;;;;;;6.97;5.03;;;;;;;19.41;74.28;96798.66;5116034;28;20082;-73
2023/07/18 04:04:26;;;;;;;9.77;5.55;;;;;;;19.50;75.48;96813.06;5113661;28;20051;-73
2023/07/18 04:06:53;;;;;;;7.85;5.43;;;;;;;19.56;74.64;96800.53;5113078;28;20051;-74
2023/07/18 04:09:20;;;;;;;7.60;5.30;;;;;;;19.55;73.96;96801.72;5113122;28;20044;-74
2023/07/18 04:11:47;;;;;;;9.45;5.88;;;;;;;19.49;73.40;96816.19;5112942;28;20052;-74
2023/07/18 04:14:15;;;;;;;9.20;5.70;;;;;;;19.56;73.27;96800.53;5113123;28;20043;-73
2023/07/18 04:16:41;;;;;;;9.38;5.28;;;;;;;19.59;73.34;96798.22;5113365;28;20100;-74
2023/07/18 04:19:08;;;;;;;8.20;5.50;;;;;;;19.67;74.08;96798.00;5113231;28;20044;-74
2023/07/18 04:21:35;;;;;;;8.93;4.85;;;;;;;19.71;73.65;96789.81;5112967;28;20523;-74
2023/07/18 04:24:02;;;;;;;8.13;5.32;;;;;;;19.74;74.28;96792.63;5109636;28;20043;-74
2023/07/18 04:26:28;;;;;;;6.68;4.57;;;;;;;19.75;74.66;96790.66;5113053;28;20044;-74
2023/07/18 04:28:55;;;;;;;7.65;5.00;;;;;;;19.74;73.52;96789.09;5112897;28;20048;-75
2023/07/18 04:31:22;;;;;;;7.15;5.13;;;;;;;19.72;73.57;96796.91;5112697;28;20039;-74
2023/07/18 04:33:49;;;;;;;8.23;5.07;;;;;;;19.71;73.85;96790.59;5112662;28;20078;-73
2023/07/18 04:36:16;;;;;;;7.70;4.95;;;;;;;19.70;74.70;96788.22;5112720;28;20043;-74
2023/07/18 04:38:42;;;;;;;6.63;5.03;;;;;;;19.71;75.84;96787.03;5112869;28;20049;-73
2023/07/18 04:41:09;;;;;;;9.40;5.70;;;;;;;19.71;75.88;96779.53;5113377;28;20044;-73
2023/07/18 04:43:35;;;;;;;8.50;5.47;;;;;;;19.68;76.02;96782.22;5113888;27;20040;-74
2023/07/18 04:46:04;;;;;;;12.57;6.25;;;;;;;19.51;75.47;96775.19;5113755;28;20051;-73
2023/07/18 04:48:32;;;;;;;9.98;5.70;;;;;;;19.59;76.13;96784.41;5113809;28;20046;-73
2023/07/18 04:51:00;;;;;;;10.18;6.68;;;;;;;19.62;75.18;96786.47;5112710;28;20067;-74
2023/07/18 04:53:27;;;;;;;8.65;5.93;;;;;;;19.59;74.87;96776.13;5112233;27;20051;-73
2023/07/18 04:55:55;;;;;;;8.35;5.75;;;;;;;19.54;74.02;96780.78;5111947;28;20439;-74
2023/07/18 04:58:23;;;;;;;6.28;4.75;;;;;;;19.58;73.90;96771.78;5112211;28;20130;-74
2023/07/18 05:00:49;;;;;;;8.38;5.57;;;;;;;19.62;74.39;96772.66;5111744;28;20043;-74
2023/07/18 05:03:16;;;;;;;7.35;5.30;;;;;;;19.62;73.73;96775.41;5111930;28;20058;-73
2023/07/18 05:05:43;;;;;;;7.65;4.95;;;;;;;19.67;74.03;96767.63;5112184;28;20044;-73
2023/07/18 05:08:10;;;;;;;7.47;4.90;;;;;;;19.72;74.46;96774.81;5112158;28;20043;-75
2023/07/18 05:10:37;;;;;;;8.43;5.25;;;;;;;19.75;74.89;96768.56;5111780;27;20498;-74
2023/07/18 05:13:03;;;;;;;8.98;5.60;;;;;;;19.73;74.87;96768.13;5111498;28;20043;-73
2023/07/18 05:15:30;;;;;;;10.52;5.63;;;;;;;19.74;74.08;96765.00;5111040;28;20050;-73
2023/07/18 05:17:56;;;;;;;7.20;4.53;;;;;;;19.81;72.37;96761.56;5107899;28;20047;-73
2023/07/18 05:20:23;;;;;;;10.30;4.68;;;;;;;19.87;72.48;96762.84;5108427;28;20449;-74
2023/07/18 05:22:51;;;;;;;9.07;5.38;;;;;;;19.88;72.13;96756.16;5108356;28;20048;-73
2023/07/18 05:25:17;;;;;;;6.80;4.88;;;;;;;19.92;72.74;96762.53;5106748;28;20060;-75
2023/07/18 05:27:44;;;;;;;8.05;5.18;;;;;;;19.98;73.38;96769.34;5107110;28;20048;-73
2023/07/18 05:30:13;;;;;;;7.20;5.18;;;;;;;19.99;73.95;96762.69;5107452;28;20043;-73
2023/07/18 05:32:40;;;;;;;8.18;4.90;;;;;;;20.03;74.89;96763.50;5109578;28;20561;-73
2023/07/18 05:35:09;;;;;;;9.18;4.97;;;;;;;20.08;73.29;96754.13;5109512;28;20039;-73
2023/07/18 05:37:36;;;;;;;6.80;4.65;;;;;;;20.12;72.34;96754.97;5110426;28;20078;-73
2023/07/18 05:40:05;;;;;;;8.00;4.50;;;;;;;20.17;72.41;96756.63;5111320;28;20039;-73
2023/07/18 05:42:32;;;;;;;9.32;5.28;;;;;;;20.22;73.07;96756.31;5111990;28;20043;-73
2023/07/18 05:44:59;;;;;;;7.35;4.97;;;;;;;20.28;73.00;96760.38;5111155;28;20371;-73
2023/07/18 05:47:25;;;;;;;7.28;4.55;;;;;;;20.36;73.07;96758.50;5111627;28;20067;-73
2023/07/18 05:49:52;;;;;;;7.25;4.60;;;;;;;20.38;70.29;96762.50;5111510;28;20043;-73
2023/07/18 05:52:18;;;;;;;7.70;4.30;;;;;;;20.43;69.70;96769.69;5111180;28;20047;-73
2023/07/18 05:54:45;;;;;;;9.75;4.68;;;;;;;20.45;69.30;96767.34;5111028;28;20050;-73
2023/07/18 05:57:14;;;;;;;8.05;4.75;;;;;;;20.46;68.99;96774.47;5111337;28;20035;-73
2023/07/18 05:59:40;;;;;;;6.82;4.88;;;;;;;20.48;69.38;96763.88;5111082;28;20039;-73
2023/07/18 06:02:07;;;;;;;6.10;4.43;;;;;;;20.48;70.02;96764.66;5111169;28;20044;-73
2023/07/18 06:04:35;;;;;;;7.45;4.38;;;;;;;20.48;69.16;96761.91;5111324;28;20047;-73
2023/07/18 06:07:01;;;;;;;5.68;3.83;;;;;;;20.53;67.86;96760.78;5110988;28;20043;-73
2023/07/18 06:09:28;;;;;;;6.82;4.43;;;;;;;20.54;65.58;96760.41;5110735;28;20043;-73
2023/07/18 06:11:54;;;;;;;7.85;4.38;;;;;;;20.47;61.76;96765.84;5110578;28;20518;-74
2023/07/18 06:14:22;;;;;;;6.80;3.70;;;;;;;20.68;63.12;96756.25;5111197;28;20063;-73
2023/07/18 06:16:49;;;;;;;8.93;4.28;;;;;;;20.78;63.37;96755.59;5110942;28;20048;-74
2023/07/18 06:19:15;;;;;;;8.00;3.80;;;;;;;20.86;62.35;96754.50;5110828;28;20487;-74
2023/07/18 06:21:42;;;;;;;7.03;3.83;;;;;;;20.80;60.51;96756.81;5111275;28;20051;-74
2023/07/18 06:24:09;;;;;;;8.75;3.25;;;;;;;20.89;57.49;96748.25;5108247;28;20039;-73
2023/07/18 06:26:36;;;;;;;6.32;3.55;;;;;;;21.01;58.60;96744.44;5111446;28;20138;-73
2023/07/18 06:29:02;;;;;;;7.97;3.20;;;;;;;21.09;57.28;96735.84;5111611;28;20054;-74
2023/07/18 06:31:30;;;;;;;6.75;2.88;;;;;;;21.26;57.86;96733.66;5113720;28;20475;-74
2023/07/18 06:33:57;;;;;;;8.75;3.63;;;;;;;21.32;58.36;96727.41;5115911;28;20048;-74
2023/07/18 06:36:24;;;;;;;7.13;4.00;;;;;;;21.39;59.05;96743.31;5115764;28;20475;-73
2023/07/18 06:38:51;;;;;;;8.23;3.58;;;;;;;21.41;58.80;96735.44;5116997;28;20063;-73
2023/07/18 06:41:18;;;;;;;8.23;3.88;;;;;;;21.20;57.32;96735.16;5122147;28;20040;-73
2023/07/18 06:43:44;;;;;;;7.13;3.33;;;;;;;21.30;54.76;96740.06;5122164;28;20039;-73
2023/07/18 06:46:11;;;;;;;7.20;3.55;;;;;;;21.36;54.54;96738.56;5113029;28;20394;-73
2023/07/18 06:48:38;;;;;;;7.15;3.50;;;;;;;21.48;54.42;96734.72;5122551;28;20067;-73
2023/07/18 06:51:06;;;;;;;8.52;3.42;;;;;;;21.51;54.09;96740.31;5117955;28;20044;-74
2023/07/18 06:53:33;;;;;;;9.82;3.10;;;;;;;21.37;51.14;96731.81;5114349;27;20479;-74
2023/07/18 06:56:00;;;;;;;5.30;3.35;;;;;;;21.55;52.63;96727.25;5114959;28;20055;-73
2023/07/18 06:58:26;;;;;;;5.70;3.35;;;;;;;21.56;50.10;96737.19;5115302;28;20463;-73
2023/07/18 07:00:53;;;;;;;6.53;2.90;;;;;;;21.75;51.95;96727.84;5114521;28;20436;-73
2023/07/18 07:03:19;;;;;;;8.25;3.03;;;;;;;21.63;49.49;96726.16;5114658;28;20059;-73
2023/07/18 07:05:47;;;;;;;5.10;2.58;;;;;;;21.71;48.59;96724.25;5114590;28;20040;-74
2023/07/18 07:08:18;;;;;;;6.22;2.85;;;;;;;21.77;49.47;96716.38;5114434;28;20047;-74
2023/07/18 07:10:45;;;;;;;9.95;3.00;;;;;;;21.91;50.83;96713.72;5114241;28;20040;-73
2023/07/18 07:13:13;;;;;;;6.75;3.08;;;;;;;22.02;51.78;96709.06;5105970;28;20044;-74
2023/07/18 07:15:39;;;;;;;4.55;2.50;;;;;;;22.24;51.14;96709.25;5114317;28;20400;-73
2023/07/18 07:18:06;;;;;;;6.30;3.15;;;;;;;22.31;49.60;96709.31;5114002;28;20053;-73
2023/07/18 07:20:33;;;;;;;6.97;2.70;;;;;;;22.40;51.07;96702.25;5114146;28;20548;-74
2023/07/18 07:23:01;;;;;;;6.22;2.63;;;;;;;22.57;48.97;96705.53;5113749;28;20639;-74
2023/07/18 07:25:29;;;;;;;6.97;2.95;;;;;;;22.57;45.85;96713.84;5114193;28;20044;-74
2023/07/18 07:27:56;;;;;;;6.70;2.38;;;;;;;22.58;44.65;96710.69;5114739;28;20492;-73
2023/07/18 07:30:23;;;;;;;6.13;2.60;;;;;;;22.57;44.31;96717.41;5119869;28;20051;-73
2023/07/18 07:32:51;;;;;;;4.70;2.50;;;;;;;22.69;45.69;96705.19;5121849;28;20107;-75
2023/07/18 07:35:18;;;;;;;6.13;2.70;;;;;;;22.69;43.16;96707.16;5121873;28;20441;-73
2023/07/18 07:37:45;;;;;;;4.38;2.25;;;;;;;22.75;43.38;96700.84;5117007;27;20050;-74
2023/07/18 07:40:14;;;;;;;5.82;2.60;;;;;;;22.78;42.25;96693.75;5114043;27;20050;-73
2023/07/18 07:42:43;;;;;;;5.97;2.35;;;;;;;22.82;43.37;96694.56;5113599;27;20043;-73
2023/07/18 07:45:10;;;;;;;5.35;2.20;;;;;;;22.98;43.67;96692.28;5113218;28;20502;-74
2023/07/18 07:47:37;;;;;;;5.43;2.28;;;;;;;23.02;42.20;96686.72;5113659;28;20052;-74
2023/07/18 07:50:04;;;;;;;4.90;2.40;;;;;;;23.21;41.82;96685.59;5113751;28;20669;-73
2023/07/18 07:52:31;;;;;;;5.93;2.30;;;;;;;23.31;41.31;96687.59;5113049;28;20507;-73
2023/07/18 07:54:58;;;;;;;4.85;2.38;;;;;;;23.37;41.56;96691.59;5113096;28;20059;-74
2023/07/18 07:57:26;;;;;;;5.10;2.25;;;;;;;23.40;40.90;96690.81;5113402;28;20684;-73
2023/07/18 07:59:53;;;;;;;6.07;2.35;;;;;;;23.48;40.38;96686.84;5113234;28;20043;-73
2023/07/18 08:02:20;;;;;;;6.05;2.30;;;;;;;23.59;42.61;96682.09;5113329;28;20502;-73
2023/07/18 08:04:48;;;;;;;5.95;2.63;;;;;;;23.72;42.83;96678.97;5113382;28;20085;-74
2023/07/18 08:07:15;;;;;;;5.53;2.33;;;;;;;23.78;39.98;96677.38;5104567;28;20635;-74
2023/07/18 08:09:42;;;;;;;6.43;2.42;;;;;;;23.86;38.37;96670.66;5112975;28;20410;-74
2023/07/18 08:12:11;;;;;;;5.30;2.35;;;;;;;24.01;40.70;96679.75;5112992;28;20048;-73
2023/07/18 08:14:40;;;;;;;5.75;2.15;;;;;;;24.05;38.72;96670.22;5112882;27;20042;-73
2023/07/18 08:17:07;;;;;;;6.65;2.30;;;;;;;24.26;40.49;96669.41;5112848;28;20153;-74
2023/07/18 08:19:35;;;;;;;7.18;2.15;;;;;;;24.29;38.54;96663.06;5113077;28;20043;-74
2023/07/18 08:22:02;;;;;;;4.70;2.30;;;;;;;24.50;38.76;96661.44;5112802;28;20525;-73
2023/07/18 08:24:29;;;;;;;8.00;2.70;;;;;;;24.71;40.35;96645.47;5112643;27;20047;-73
2023/07/18 08:26:55;;;;;;;3.65;2.13;;;;;;;24.95;39.73;96642.97;5112825;28;20054;-74
2023/07/18 08:29:24;;;;;;;4.35;2.45;;;;;;;25.12;40.82;96635.78;5112537;28;20043;-74
2023/07/18 08:31:54;;;;;;;5.00;2.08;;;;;;;25.27;39.75;96636.47;5112481;28;20134;-74
2023/07/18 08:34:21;;;;;;;12.60;3.17;;;;;;;25.37;40.26;96635.59;5112597;28;20091;-74
2023/07/18 08:36:47;;;;;;;4.80;2.40;;;;;;;25.54;40.58;96617.97;5112542;27;20044;-74
2023/07/18 08:39:14;;;;;;;7.78;2.75;;;;;;;25.70;39.88;96621.03;5112719;28;20040;-74
2023/07/18 08:41:43;;;;;;;5.93;2.40;;;;;;;25.86;39.14;96616.94;5112717;28;20047;-73
2023/07/18 08:44:10;;;;;;;5.03;2.40;;;;;;;25.96;39.51;96611.28;5112328;28;20082;-73
2023/07/18 08:46:37;;;;;;;5.47;2.65;;;;;;;25.98;39.07;96608.06;5112527;28;20047;-74
2023/07/18 08:49:06;;;;;;;7.80;2.67;;;;;;;26.12;39.78;96612.72;5112477;28;20047;-73
2023/07/18 08:51:33;;;;;;;7.35;2.95;;;;;;;26.27;38.11;96612.16;5112459;28;20039;-74
2023/07/18 08:53:59;;;;;;;7.20;2.67;;;;;;;26.19;37.10;96612.66;5110929;28;20070;-74
2023/07/18 08:56:26;;;;;;;4.72;2.53;;;;;;;26.40;39.84;96608.84;5116145;28;20040;-74
2023/07/18 08:58:53;;;;;;;5.30;2.55;;;;;;;26.52;39.36;96613.94;5117025;28;20052;-74
2023/07/18 09:01:20;;;;;;;6.05;2.65;;;;;;;26.50;37.59;96610.75;5115789;28;20043;-75
2023/07/18 09:03:46;;;;;;;5.43;3.17;;;;;;;26.57;40.85;96599.47;5114008;28;20051;-74
2023/07/18 09:06:23;;;;;;;8.10;2.83;;;;;;;26.36;39.04;96599.69;5115332;28;20048;-75
2023/07/18 09:08:50;;;;;;;6.72;2.55;;;;;;;26.41;37.17;96608.41;5115758;28;20048;-75
2023/07/18 09:11:20;;;;;;;5.00;2.67;;;;;;;26.54;38.75;96598.31;5115901;28;20047;-74
2023/07/18 09:13:47;;;;;;;4.90;3.20;;;;;;;26.62;38.42;96593.44;5115037;28;20056;-74
2023/07/18 09:16:15;;;;;;;8.15;2.90;;;;;;;26.40;37.72;96592.06;5115253;28;20070;-74
2023/07/18 09:18:48;;;;;;;6.63;2.65;;;;;;;26.66;38.56;96585.81;5114421;28;20042;-74
2023/07/18 09:21:15;;;;;;;4.60;2.47;;;;;;;26.57;39.41;96576.34;5114092;28;20050;-74
2023/07/18 09:23:44;;;;;;;5.50;2.45;;;;;;;26.82;39.89;96573.25;5113993;28;20040;-74
2023/07/18 09:26:13;;;;;;;6.10;2.70;;;;;;;26.87;39.64;96572.78;5114875;28;20086;-74
2023/07/18 09:28:40;;;;;;;5.55;2.78;;;;;;;26.84;36.60;96570.84;5114892;28;20053;-74
2023/07/18 09:31:16;;;;;;;5.85;3.13;;;;;;;26.98;41.58;96573.41;5112524;28;20047;-74
2023/07/18 09:33:43;;;;;;;6.28;2.90;;;;;;;27.00;38.51;96565.44;5111239;28;20506;-74
2023/07/18 09:36:14;;;;;;;7.75;3.03;;;;;;;27.19;43.08;96561.97;5111464;28;20491;-74
2023/07/18 09:38:44;;;;;;;4.13;2.40;;;;;;;27.26;39.37;96559.06;5111839;28;20046;-74
2023/07/18 09:41:11;;;;;;;5.90;3.00;;;;;;;27.22;40.34;96560.34;5111587;28;20051;-74
2023/07/18 09:43:40;;;;;;;6.35;2.67;;;;;;;27.16;41.17;96551.63;5111119;28;20036;-74
2023/07/18 09:46:06;;;;;;;5.00;2.88;;;;;;;26.99;37.85;96563.81;5111395;28;20056;-74
2023/07/18 09:48:33;;;;;;;6.88;3.28;;;;;;;27.14;38.33;96554.03;5111419;28;20070;-74
2023/07/18 09:51:01;;;;;;;4.97;2.67;;;;;;;27.37;40.18;96538.53;5111253;28;20436;-74
2023/07/18 09:53:31;;;;;;;7.25;3.20;;;;;;;27.37;40.32;96544.13;5111181;28;20047;-74
2023/07/18 09:56:01;;;;;;;7.28;3.53;;;;;;;27.37;38.97;96544.13;5111112;28;20052;-74
2023/07/18 09:58:29;;;;;;;7.13;3.40;;;;;;;27.38;37.55;96540.13;5111777;28;20043;-74
2023/07/18 10:00:57;;;;;;;6.15;3.22;;;;;;;27.14;39.22;96536.47;5111121;28;20608;-74
2023/07/18 10:03:23;;;;;;;6.18;3.25;;;;;;;27.30;44.12;96537.44;5103064;28;20047;-73
2023/07/18 10:05:50;;;;;;;7.03;3.05;;;;;;;27.47;39.38;96531.97;5111277;28;20059;-74
2023/07/18 10:08:17;;;;;;;5.57;2.92;;;;;;;27.51;40.85;96532.69;5111302;28;20059;-74
2023/07/18 10:11:02;;;;;;;5.65;2.83;;;;;;;27.53;39.81;96525.47;5111725;28;20494;-74
2023/07/18 10:13:29;;;;;;;5.03;2.88;;;;;;;27.57;38.70;96537.41;5104212;28;20487;-73
2023/07/18 10:16:19;;;;;;;6.93;3.47;;;;;;;27.64;38.68;96533.69;5112014;28;20039;-74
2023/07/18 10:18:45;;;;;;;7.70;3.60;;;;;;;27.79;39.32;96532.25;5108065;28;20487;-77
2023/07/18 10:21:13;;;;;;;8.07;3.55;;;;;;;27.85;37.97;96535.34;5116352;28;20043;-74
2023/07/18 10:23:41;;;;;;;4.50;2.70;;;;;;;27.76;38.15;96538.69;5116515;28;20402;-74
2023/07/18 10:26:10;;;;;;;5.05;2.80;;;;;;;27.86;41.61;96519.34;5116988;28;20051;-74
2023/07/18 10:28:44;;;;;;;8.40;3.22;;;;;;;27.92;41.05;96520.41;5117446;28;20044;-74
2023/07/18 10:31:26;;;;;;;6.03;3.15;;;;;;;27.92;40.44;96517.63;5114976;28;20050;-74
2023/07/18 10:34:10;;;;;;;5.90;3.40;;;;;;;27.94;39.85;96515.22;5110889;28;20051;-74
2023/07/18 10:36:37;;;;;;;6.60;3.47;;;;;;;27.75;38.49;96516.75;5111162;28;20040;-74
2023/07/18 10:39:09;;;;;;;5.53;2.97;;;;;;;28.02;39.62;96516.63;5110940;28;20051;-74
2023/07/18 10:41:37;;;;;;;9.30;3.38;;;;;;;27.87;40.93;96504.13;5111011;28;20066;-73
2023/07/18 10:44:04;;;;;;;5.30;3.05;;;;;;;27.96;40.63;96510.75;5110767;28;20052;-74
2023/07/18 10:46:38;;;;;;;6.50;3.00;;;;;;;27.98;40.70;96510.31;5110806;28;20047;-73
2023/07/18 10:49:05;;;;;;;6.32;3.72;;;;;;;27.76;39.11;96516.31;5110548;28;20123;-73
2023/07/18 10:51:31;;;;;;;6.13;3.25;;;;;;;27.73;39.46;96511.56;5110624;28;20498;-73
2023/07/18 10:53:59;;;;;;;9.32;3.70;;;;;;;27.68;38.39;96500.84;5110248;28;20439;-73
2023/07/18 10:56:26;;;;;;;6.22;3.42;;;;;;;27.68;38.97;96502.84;5110756;28;20075;-73
2023/07/18 10:58:56;;;;;;;9.95;3.85;;;;;;;27.69;39.23;96496.81;5110856;28;20052;-73
2023/07/18 11:01:25;;;;;;;6.13;3.67;;;;;;;27.71;40.97;96500.00;5110907;28;20036;-73
2023/07/18 11:03:51;;;;;;;8.15;4.07;;;;;;;27.58;39.47;96497.03;5110421;28;20136;-73
2023/07/18 11:06:21;;;;;;;6.18;3.58;;;;;;;27.61;38.68;96495.34;5110668;28;20054;-73
2023/07/18 11:08:48;;;;;;;6.97;3.50;;;;;;;27.58;38.99;96496.22;5110531;28;20043;-73
2023/07/18 11:11:18;;;;;;;6.70;3.30;;;;;;;27.66;41.12;96492.06;5110681;28;20127;-73
2023/07/18 11:13:44;;;;;;;4.90;3.58;;;;;;;27.68;41.58;96498.06;5110501;28;20071;-74
2023/07/18 11:16:14;;;;;;;8.07;3.58;;;;;;;27.61;39.36;96495.34;5110691;28;20059;-73
2023/07/18 11:18:43;;;;;;;6.55;4.10;;;;;;;27.57;40.69;96489.06;5113856;28;20043;-73
2023/07/18 11:21:11;;;;;;;7.30;3.65;;;;;;;27.71;42.40;96486.00;5114185;27;20048;-73
2023/07/18 11:23:38;;;;;;;7.50;3.70;;;;;;;27.74;42.18;96487.97;5113813;27;20070;-73
2023/07/18 11:26:12;;;;;;;6.88;4.25;;;;;;;27.85;40.48;96495.38;5113936;28;20661;-73
2023/07/18 11:28:39;;;;;;;7.50;3.78;;;;;;;27.92;42.61;96498.03;5114166;28;20126;-73
2023/07/18 11:31:06;;;;;;;8.23;4.00;;;;;;;27.99;42.70;96495.13;5113934;28;20075;-73
2023/07/18 11:33:34;;;;;;;6.18;3.88;;;;;;;28.08;41.06;96503.72;5113970;28;20062;-73